Time;durP1;ratioP1;P1;durP2;ratioP2;P2;SDS_P1;SDS_P2;PMS_P1;PMS_P2;Temp;Humidity;BMP_temperature;BMP_pressure;BME280_temperature;BME280_humidity;BME280_pressure;Samples;Min_cycle;Max_cycle;Signal;HPM_P1;HPM_P2
2023/11/08 00:00:05;;;;;;;2.00;1.33;;;11.80;56.70;;;;;;5028943;28;20208;-52
2023/11/08 00:02:31;;;;;;;1.90;1.50;;;11.80;56.70;;;;;;5036650;28;20444;-55
2023/11/08 00:04:56;;;;;;;2.23;2.00;;;11.90;57.30;;;;;;5036845;28;20954;-52
2023/11/08 00:07:22;;;;;;;3.83;1.73;;;11.90;56.60;;;;;;5023230;28;20189;-52
2023/11/08 00:09:47;;;;;;;3.40;1.70;;;11.90;56.40;;;;;;5025750;28;20554;-55
2023/11/08 00:12:13;;;;;;;2.77;2.10;;;11.90;56.50;;;;;;5032233;28;20213;-52
2023/11/08 00:14:39;;;;;;;4.60;2.00;;;11.80;56.70;;;;;;5023543;28;20197;-52
2023/11/08 00:17:05;;;;;;;2.10;1.90;;;11.70;56.60;;;;;;5023208;28;20484;-55
2023/11/08 00:19:31;;;;;;;2.80;2.20;;;11.80;56.60;;;;;;5030554;28;20259;-55
2023/11/08 00:21:58;;;;;;;4.50;1.97;;;12.00;56.30;;;;;;5029911;28;20181;-51
2023/11/08 00:24:25;;;;;;;5.60;2.10;;;11.80;56.30;;;;;;5029564;28;20300;-52
2023/11/08 00:26:51;;;;;;;2.80;1.73;;;11.90;56.40;;;;;;5025313;28;20482;-54
2023/11/08 00:29:16;;;;;;;6.30;1.87;;;11.70;56.30;;;;;;5035109;28;20480;-52
2023/11/08 00:31:42;;;;;;;1.53;1.43;;;11.70;56.60;;;;;;5039324;28;20303;-51
2023/11/08 00:34:08;;;;;;;4.73;1.80;;;11.50;56.80;;;;;;5039729;28;20187;-51
2023/11/08 00:36:34;;;;;;;2.20;1.63;;;11.50;56.90;;;;;;5039550;28;20251;-53
2023/11/08 00:38:59;;;;;;;2.70;1.43;;;11.50;57.00;;;;;;5035344;28;20456;-54
2023/11/08 00:41:25;;;;;;;3.10;1.73;;;11.50;56.90;;;;;;5026278;28;20191;-53
2023/11/08 00:43:55;;;;;;;3.30;1.13;;;11.50;57.10;;;;;;5028118;28;20569;-51
2023/11/08 00:46:22;;;;;;;3.43;1.50;;;11.40;57.30;;;;;;5023401;28;20312;-54
2023/11/08 00:48:47;;;;;;;4.20;1.70;;;11.40;57.40;;;;;;5021851;28;20478;-53
2023/11/08 00:51:13;;;;;;;5.33;1.60;;;11.40;57.70;;;;;;5023523;28;20479;-56
2023/11/08 00:53:39;;;;;;;3.77;1.27;;;11.30;57.70;;;;;;5028305;28;20185;-51
2023/11/08 00:56:05;;;;;;;3.43;1.70;;;11.30;58.00;;;;;;5028754;28;20262;-52
2023/11/08 00:58:31;;;;;;;2.93;1.23;;;11.30;57.90;;;;;;5027824;28;20478;-52
2023/11/08 01:00:56;;;;;;;2.20;1.20;;;11.50;58.10;;;;;;5025838;28;20440;-52
2023/11/08 01:03:22;;;;;;;2.80;1.33;;;11.60;57.90;;;;;;5027862;28;20673;-52
2023/11/08 01:05:48;;;;;;;1.93;1.40;;;11.50;58.00;;;;;;5022722;28;20276;-53
2023/11/08 01:08:13;;;;;;;2.10;1.13;;;11.50;58.20;;;;;;5025161;28;20181;-54
2023/11/08 01:10:43;;;;;;;5.30;2.27;;;11.60;58.30;;;;;;5020619;28;20228;-53
2023/11/08 01:13:08;;;;;;;2.30;1.33;;;11.60;58.40;;;;;;5024914;28;20255;-52
2023/11/08 01:15:34;;;;;;;3.50;2.00;;;11.50;58.30;;;;;;5019774;28;20463;-55
2023/11/08 01:18:00;;;;;;;1.67;1.10;;;11.60;58.90;;;;;;5019433;28;20208;-53
2023/11/08 01:20:26;;;;;;;3.77;1.17;;;11.70;59.30;;;;;;5032195;28;20225;-53
2023/11/08 01:22:52;;;;;;;3.87;1.23;;;11.50;59.40;;;;;;5033364;28;20513;-55
2023/11/08 01:25:18;;;;;;;1.77;1.30;;;11.50;60.80;;;;;;5023056;28;20193;-52
2023/11/08 01:27:43;;;;;;;2.33;1.37;;;11.50;59.50;;;;;;5024083;28;20942;-56
2023/11/08 01:30:10;;;;;;;3.27;1.50;;;11.50;59.50;;;;;;5026444;28;20935;-56
2023/11/08 01:32:35;;;;;;;1.77;1.67;;;11.50;59.50;;;;;;5031205;28;20189;-56
2023/11/08 01:35:02;;;;;;;2.20;1.27;;;11.50;59.30;;;;;;5023012;28;20451;-54
2023/11/08 01:37:28;;;;;;;2.40;1.20;;;11.40;59.20;;;;;;5023306;28;20264;-56
2023/11/08 01:39:53;;;;;;;1.63;1.20;;;11.40;59.40;;;;;;5024828;28;20610;-55
2023/11/08 01:42:19;;;;;;;2.50;1.53;;;11.50;59.40;;;;;;5023396;28;20201;-54
2023/11/08 01:44:45;;;;;;;2.40;1.70;;;11.40;59.60;;;;;;5025622;28;20201;-56
2023/11/08 01:47:14;;;;;;;3.17;1.70;;;11.50;60.00;;;;;;5025179;28;20204;-57
2023/11/08 01:49:39;;;;;;;2.10;1.40;;;11.60;59.10;;;;;;5027735;28;20209;-55
2023/11/08 01:52:06;;;;;;;2.17;1.70;;;11.50;59.00;;;;;;5027788;28;20486;-54
2023/11/08 01:54:32;;;;;;;2.50;1.20;;;11.60;59.10;;;;;;5029115;28;20200;-54
2023/11/08 01:57:00;;;;;;;1.63;0.90;;;11.60;58.70;;;;;;5025258;28;21140;-57
2023/11/08 01:59:26;;;;;;;3.40;1.27;;;11.50;58.90;;;;;;5028895;28;20462;-54
2023/11/08 02:01:57;;;;;;;2.67;1.30;;;11.60;59.00;;;;;;5040379;28;20435;-56
2023/11/08 02:04:23;;;;;;;1.50;1.00;;;11.40;59.00;;;;;;5028463;28;20653;-56
2023/11/08 02:06:49;;;;;;;2.40;1.20;;;11.50;59.10;;;;;;5026801;28;20532;-54
2023/11/08 02:09:16;;;;;;;2.30;1.30;;;11.40;59.00;;;;;;5031094;28;20460;-54
2023/11/08 02:11:43;;;;;;;3.77;1.23;;;11.40;59.10;;;;;;5032287;28;20847;-53
2023/11/08 02:14:08;;;;;;;1.40;1.20;;;11.40;59.30;;;;;;5025989;28;20427;-56
2023/11/08 02:16:34;;;;;;;1.80;1.20;;;11.50;59.20;;;;;;5026383;28;20465;-57
2023/11/08 02:19:00;;;;;;;1.90;1.27;;;11.40;59.20;;;;;;5029577;28;20270;-56
2023/11/08 02:21:25;;;;;;;3.10;1.50;;;11.50;59.40;;;;;;5029227;28;20492;-54
2023/11/08 02:23:51;;;;;;;3.50;1.70;;;11.50;59.30;;;;;;5035965;28;20192;-53
2023/11/08 02:26:16;;;;;;;1.80;1.13;;;11.50;59.30;;;;;;5026426;28;20595;-53
2023/11/08 02:28:43;;;;;;;1.80;1.17;;;11.40;59.30;;;;;;5029631;28;20439;-55
2023/11/08 02:31:08;;;;;;;2.33;1.33;;;11.60;59.30;;;;;;5028210;28;20283;-55
2023/11/08 02:33:34;;;;;;;3.90;1.47;;;11.50;59.30;;;;;;5029740;28;20436;-55
2023/11/08 02:36:03;;;;;;;1.03;0.93;;;11.60;59.20;;;;;;5032791;28;20324;-54
2023/11/08 02:38:29;;;;;;;1.57;0.80;;;11.60;59.00;;;;;;5028406;28;20205;-56
2023/11/08 02:40:54;;;;;;;2.20;1.27;;;11.60;59.00;;;;;;5035659;28;20436;-56
2023/11/08 02:43:22;;;;;;;1.80;1.00;;;11.80;58.60;;;;;;5028373;28;20185;-53
2023/11/08 02:45:47;;;;;;;3.70;1.30;;;11.80;58.60;;;;;;5025894;28;20330;-52
2023/11/08 02:48:13;;;;;;;1.83;1.00;;;11.90;58.40;;;;;;5034357;28;21001;-57
2023/11/08 02:50:39;;;;;;;1.27;1.00;;;12.00;58.50;;;;;;5032296;28;20716;-55
2023/11/08 02:53:06;;;;;;;1.30;1.00;;;12.00;58.60;;;;;;5028884;28;20569;-54
2023/11/08 02:55:32;;;;;;;2.97;0.90;;;11.80;58.80;;;;;;5027328;28;20186;-53
2023/11/08 02:57:58;;;;;;;1.10;1.00;;;11.80;59.00;;;;;;5027533;28;20440;-52
2023/11/08 03:00:24;;;;;;;1.70;0.93;;;11.90;58.80;;;;;;5032790;28;20444;-53
2023/11/08 03:02:51;;;;;;;3.93;1.17;;;12.00;58.70;;;;;;5026512;28;20440;-55
2023/11/08 03:05:24;;;;;;;3.30;1.10;;;12.10;58.60;;;;;;5033208;28;20444;-55
2023/11/08 03:07:55;;;;;;;2.00;1.20;;;11.90;58.60;;;;;;5027879;28;20785;-55
2023/11/08 03:10:21;;;;;;;2.10;1.10;;;11.80;58.80;;;;;;5026748;28;20840;-54
2023/11/08 03:12:48;;;;;;;2.70;1.20;;;11.80;59.10;;;;;;5028209;28;20467;-53
2023/11/08 03:15:16;;;;;;;2.40;1.10;;;11.90;59.00;;;;;;5030686;28;20436;-54
2023/11/08 03:17:43;;;;;;;2.60;1.17;;;11.90;58.90;;;;;;5028248;28;20436;-56
2023/11/08 03:20:11;;;;;;;2.27;1.17;;;12.10;58.80;;;;;;5029723;28;20491;-55
2023/11/08 03:22:39;;;;;;;4.90;1.70;;;12.00;58.70;;;;;;5036062;28;21023;-57
2023/11/08 03:25:11;;;;;;;1.77;1.23;;;11.90;58.80;;;;;;5029178;28;20475;-53
2023/11/08 03:27:41;;;;;;;1.63;1.10;;;11.90;59.40;;;;;;5026718;28;20443;-55
2023/11/08 03:30:08;;;;;;;2.40;1.17;;;11.90;59.40;;;;;;5027255;28;20842;-53
2023/11/08 03:32:34;;;;;;;5.77;1.70;;;11.90;59.50;;;;;;5025470;28;20443;-56
2023/11/08 03:34:59;;;;;;;2.60;1.13;;;12.00;59.60;;;;;;5028463;28;20436;-56
2023/11/08 03:37:25;;;;;;;2.20;1.43;;;11.90;59.20;;;;;;5027506;28;20190;-55
2023/11/08 03:39:51;;;;;;;1.63;0.93;;;11.80;59.70;;;;;;5029335;28;20209;-52
2023/11/08 03:42:16;;;;;;;3.50;1.53;;;11.80;59.60;;;;;;5026724;28;20247;-52
2023/11/08 03:44:42;;;;;;;2.10;1.40;;;11.80;59.80;;;;;;5028241;28;20225;-53
2023/11/08 03:47:10;;;;;;;1.37;1.10;;;11.80;59.70;;;;;;5031139;28;20191;-55
2023/11/08 03:49:35;;;;;;;3.20;1.40;;;11.80;59.60;;;;;;5028983;28;20208;-56
2023/11/08 03:52:04;;;;;;;1.70;1.10;;;11.70;59.80;;;;;;5025578;28;20508;-55
2023/11/08 03:54:29;;;;;;;1.17;0.90;;;11.70;59.80;;;;;;5027002;28;20192;-52
2023/11/08 03:56:55;;;;;;;3.00;1.10;;;11.50;60.30;;;;;;5023559;28;20455;-53
2023/11/08 03:59:20;;;;;;;2.20;1.10;;;11.40;60.70;;;;;;5023871;28;20205;-56
2023/11/08 04:01:47;;;;;;;2.20;1.50;;;11.50;60.80;;;;;;5021187;28;20177;-55
2023/11/08 04:04:12;;;;;;;3.13;1.30;;;11.60;60.40;;;;;;5025373;28;20732;-52
2023/11/08 04:06:38;;;;;;;1.47;1.37;;;11.50;60.40;;;;;;5022720;28;20511;-56
2023/11/08 04:09:04;;;;;;;2.40;1.30;;;11.50;60.40;;;;;;5026736;28;20649;-54
2023/11/08 04:11:30;;;;;;;3.03;1.53;;;11.40;60.90;;;;;;5025661;28;20790;-56
2023/11/08 04:13:56;;;;;;;2.67;1.27;;;11.30;60.90;;;;;;5026833;28;20762;-56
2023/11/08 04:16:21;;;;;;;2.43;0.90;;;11.40;60.50;;;;;;5021862;28;20868;-54
2023/11/08 04:18:47;;;;;;;2.00;1.20;;;11.50;60.70;;;;;;5021601;28;20292;-52
2023/11/08 04:21:13;;;;;;;3.53;1.73;;;11.40;60.20;;;;;;5028827;28;20196;-55
2023/11/08 04:23:38;;;;;;;2.30;1.70;;;11.50;60.60;;;;;;5031942;28;20274;-55
2023/11/08 04:26:06;;;;;;;4.23;1.70;;;11.50;60.30;;;;;;5029822;28;20477;-53
2023/11/08 04:28:32;;;;;;;3.70;2.47;;;11.50;60.20;;;;;;5028920;28;20205;-56
2023/11/08 04:30:58;;;;;;;2.60;1.20;;;11.40;60.30;;;;;;5030162;28;20482;-53
2023/11/08 04:33:24;;;;;;;2.40;1.47;;;11.40;60.90;;;;;;5030465;28;20444;-54
2023/11/08 04:35:49;;;;;;;7.43;1.50;;;11.60;61.10;;;;;;5024622;28;20192;-54
2023/11/08 04:38:15;;;;;;;4.50;1.67;;;11.60;60.90;;;;;;5033999;28;20199;-56
2023/11/08 04:40:41;;;;;;;4.07;1.60;;;11.60;60.60;;;;;;5026917;28;20267;-54
2023/11/08 04:43:06;;;;;;;3.63;1.43;;;11.40;61.00;;;;;;5029625;28;20190;-57
2023/11/08 04:45:32;;;;;;;6.03;1.60;;;11.30;61.20;;;;;;5028570;28;20768;-54
2023/11/08 04:47:57;;;;;;;1.50;1.40;;;11.30;62.00;;;;;;5027009;28;20687;-52
2023/11/08 04:50:23;;;;;;;5.47;1.33;;;11.10;61.70;;;;;;5030494;28;20213;-55
2023/11/08 04:52:48;;;;;;;4.03;1.43;;;11.00;62.30;;;;;;5025382;28;20197;-55
2023/11/08 04:55:14;;;;;;;5.10;1.03;;;11.20;63.10;;;;;;5026521;28;20223;-55
2023/11/08 04:57:39;;;;;;;2.60;1.80;;;11.20;62.50;;;;;;5022783;28;20243;-54
2023/11/08 05:00:06;;;;;;;2.73;1.87;;;11.40;62.70;;;;;;5026128;28;20630;-52
2023/11/08 05:02:34;;;;;;;2.07;1.30;;;11.50;62.50;;;;;;5027606;28;20588;-56
2023/11/08 05:05:01;;;;;;;5.43;1.47;;;11.60;62.60;;;;;;5022151;28;20655;-55
2023/11/08 05:07:26;;;;;;;3.47;1.23;;;11.60;62.60;;;;;;5022785;28;20432;-52
2023/11/08 05:09:53;;;;;;;5.10;1.70;;;11.70;62.70;;;;;;5036198;28;20510;-53
2023/11/08 05:12:20;;;;;;;1.77;1.27;;;12.00;62.10;;;;;;5022397;28;21894;-52
2023/11/08 05:14:45;;;;;;;2.10;1.43;;;11.80;61.50;;;;;;5027369;28;20440;-52
2023/11/08 05:17:11;;;;;;;3.80;1.70;;;11.60;61.30;;;;;;5026090;28;20443;-51
2023/11/08 05:19:37;;;;;;;3.13;1.80;;;11.40;62.10;;;;;;5030508;28;20209;-52
2023/11/08 05:22:03;;;;;;;3.73;1.70;;;11.30;62.60;;;;;;5032810;28;20188;-55
2023/11/08 05:24:30;;;;;;;3.63;1.30;;;11.10;62.50;;;;;;5028417;28;20431;-55
2023/11/08 05:26:56;;;;;;;3.60;1.47;;;11.10;62.90;;;;;;5027586;28;20193;-52
2023/11/08 05:29:21;;;;;;;6.87;1.73;;;11.20;63.00;;;;;;5028623;28;20463;-52
2023/11/08 05:31:47;;;;;;;2.73;1.50;;;11.20;62.50;;;;;;5023786;28;20278;-53
2023/11/08 05:34:14;;;;;;;1.90;1.27;;;11.10;63.00;;;;;;5029858;28;20181;-51
2023/11/08 05:36:40;;;;;;;2.83;1.37;;;11.30;63.00;;;;;;5028186;28;20462;-52
2023/11/08 05:39:06;;;;;;;2.90;1.57;;;11.30;62.40;;;;;;5028045;28;20447;-53
2023/11/08 05:41:32;;;;;;;2.00;1.30;;;11.30;62.00;;;;;;5026853;28;20438;-52
2023/11/08 05:43:58;;;;;;;5.23;1.50;;;11.40;61.90;;;;;;5025898;28;20253;-51
2023/11/08 05:46:28;;;;;;;1.30;1.20;;;11.20;62.40;;;;;;5025062;28;20748;-52
2023/11/08 05:49:03;;;;;;;4.97;1.60;;;11.20;62.30;;;;;;5025230;28;20472;-52
2023/11/08 05:51:29;;;;;;;2.80;1.60;;;11.30;62.30;;;;;;5024763;28;20489;-57
2023/11/08 05:53:54;;;;;;;1.70;1.60;;;11.30;62.10;;;;;;5027003;28;20439;-52
2023/11/08 05:56:20;;;;;;;2.00;1.67;;;11.10;62.00;;;;;;5030298;28;20195;-53
2023/11/08 05:58:46;;;;;;;1.40;1.20;;;11.10;62.40;;;;;;5027341;28;20228;-57
2023/11/08 06:01:15;;;;;;;1.20;1.10;;;11.00;62.80;;;;;;5026938;28;20185;-52
2023/11/08 06:03:42;;;;;;;2.60;1.67;;;10.90;62.70;;;;;;5023416;28;20309;-53
2023/11/08 06:06:08;;;;;;;1.57;1.30;;;11.00;62.90;;;;;;5027649;28;20440;-52
2023/11/08 06:08:33;;;;;;;2.50;1.90;;;10.90;63.00;;;;;;5027251;28;20921;-51
2023/11/08 06:10:59;;;;;;;2.23;1.53;;;11.00;62.90;;;;;;5031472;28;20220;-51
2023/11/08 06:13:25;;;;;;;6.23;1.60;;;11.20;62.80;;;;;;5027629;28;20264;-51
2023/11/08 06:15:50;;;;;;;3.03;1.87;;;11.30;61.70;;;;;;5027015;28;20189;-51
2023/11/08 06:18:16;;;;;;;1.53;1.43;;;11.40;62.10;;;;;;5035266;28;20219;-53
2023/11/08 06:20:41;;;;;;;3.40;1.90;;;11.40;61.70;;;;;;5036123;28;20258;-54
2023/11/08 06:23:07;;;;;;;1.73;1.30;;;11.60;61.40;;;;;;5035111;28;20189;-55
2023/11/08 06:25:32;;;;;;;2.77;1.57;;;11.70;60.60;;;;;;5036956;28;20208;-52
2023/11/08 06:28:00;;;;;;;1.90;1.23;;;11.70;60.20;;;;;;5039633;28;20263;-51
2023/11/08 06:30:25;;;;;;;4.30;1.60;;;11.60;60.40;;;;;;5036414;28;20669;-52
2023/11/08 06:32:51;;;;;;;2.33;1.27;;;11.40;60.80;;;;;;5033416;28;20931;-51
2023/11/08 06:35:17;;;;;;;2.20;1.20;;;11.50;61.80;;;;;;5036208;28;20188;-52
2023/11/08 06:37:43;;;;;;;2.90;1.47;;;11.60;61.40;;;;;;5040748;28;20231;-52
2023/11/08 06:40:09;;;;;;;3.63;2.10;;;11.50;61.30;;;;;;5035043;28;20217;-53
2023/11/08 06:42:35;;;;;;;5.00;1.80;;;11.40;61.40;;;;;;5032827;28;20442;-52
2023/11/08 06:45:03;;;;;;;2.70;1.53;;;11.40;61.40;;;;;;5027597;28;20506;-52
2023/11/08 06:47:29;;;;;;;4.30;1.90;;;11.40;61.60;;;;;;5031133;28;20440;-56
2023/11/08 06:49:55;;;;;;;2.97;1.57;;;11.50;61.10;;;;;;5033584;28;20872;-51
2023/11/08 06:52:21;;;;;;;4.80;1.60;;;11.80;60.60;;;;;;5033456;28;20220;-54
2023/11/08 06:54:47;;;;;;;2.13;1.40;;;12.40;59.10;;;;;;5027328;28;20443;-53
2023/11/08 06:57:13;;;;;;;2.20;1.70;;;13.10;58.00;;;;;;5035008;28;20731;-52
2023/11/08 06:59:38;;;;;;;5.83;1.90;;;13.70;56.10;;;;;;5026673;28;20467;-52
2023/11/08 07:02:04;;;;;;;2.63;1.50;;;14.10;55.10;;;;;;5026313;28;20271;-56
2023/11/08 07:04:30;;;;;;;2.30;1.40;;;14.40;53.70;;;;;;5030163;28;20623;-54
2023/11/08 07:06:55;;;;;;;2.00;1.60;;;14.70;52.90;;;;;;5035180;28;20720;-54
2023/11/08 07:09:21;;;;;;;2.63;2.17;;;14.60;53.00;;;;;;5029208;28;20205;-52
2023/11/08 07:11:48;;;;;;;2.30;1.30;;;14.90;53.20;;;;;;5027741;28;20225;-52
2023/11/08 07:14:13;;;;;;;4.67;1.73;;;15.20;52.10;;;;;;5028718;28;20424;-52
2023/11/08 07:16:39;;;;;;;2.07;1.60;;;15.40;51.80;;;;;;5033140;28;21117;-55
2023/11/08 07:19:05;;;;;;;5.13;1.70;;;15.80;51.10;;;;;;5032443;28;20218;-52
2023/11/08 07:21:30;;;;;;;3.13;1.60;;;16.10;50.20;;;;;;5027983;28;20186;-52
2023/11/08 07:23:57;;;;;;;3.83;1.97;;;16.30;49.80;;;;;;5036708;28;20201;-53
2023/11/08 07:26:23;;;;;;;5.53;1.80;;;16.50;49.70;;;;;;5029845;28;20216;-52
2023/11/08 07:28:49;;;;;;;1.70;1.60;;;16.20;49.40;;;;;;5029173;28;21270;-52
2023/11/08 07:31:14;;;;;;;1.90;1.67;;;16.20;49.50;;;;;;5026951;28;20534;-53
2023/11/08 07:33:40;;;;;;;2.37;1.23;;;16.20;49.50;;;;;;5027192;28;20272;-56
2023/11/08 07:36:06;;;;;;;4.30;1.47;;;16.20;49.30;;;;;;5026086;28;20545;-56
2023/11/08 07:38:35;;;;;;;1.67;1.57;;;16.30;49.40;;;;;;5027329;28;20517;-54
2023/11/08 07:41:02;;;;;;;3.33;1.67;;;16.10;49.40;;;;;;5024859;28;20646;-54
2023/11/08 07:43:29;;;;;;;2.00;1.80;;;16.00;49.90;;;;;;5041812;28;20442;-56
2023/11/08 07:45:54;;;;;;;1.53;1.33;;;15.90;50.20;;;;;;5024899;28;21036;-57
2023/11/08 07:48:20;;;;;;;7.50;2.07;;;15.80;50.30;;;;;;5030161;28;20462;-55
2023/11/08 07:50:45;;;;;;;1.70;1.60;;;15.60;50.60;;;;;;5027699;28;20213;-54
2023/11/08 07:53:11;;;;;;;1.63;1.40;;;15.30;51.00;;;;;;5023396;28;20264;-53
2023/11/08 07:55:36;;;;;;;2.10;1.37;;;14.90;52.10;;;;;;5023338;28;20219;-57
2023/11/08 07:58:02;;;;;;;1.90;1.50;;;14.80;52.50;;;;;;5027266;28;20193;-52
2023/11/08 08:00:27;;;;;;;3.07;1.43;;;14.80;52.60;;;;;;5024970;28;20626;-52
2023/11/08 08:02:53;;;;;;;1.57;1.40;;;14.60;52.50;;;;;;5026839;28;20276;-51
2023/11/08 08:05:19;;;;;;;2.73;1.77;;;14.30;52.90;;;;;;5025698;28;20289;-56
2023/11/08 08:07:45;;;;;;;3.03;1.60;;;14.10;53.90;;;;;;5036955;28;20189;-53
2023/11/08 08:10:12;;;;;;;2.70;1.67;;;14.20;54.20;;;;;;5028836;28;20457;-56
2023/11/08 08:12:42;;;;;;;1.77;1.57;;;14.20;54.20;;;;;;5030646;28;20522;-54
2023/11/08 08:15:09;;;;;;;1.97;1.20;;;14.10;53.60;;;;;;5027534;28;20434;-55
2023/11/08 08:17:34;;;;;;;2.80;1.90;;;14.00;54.30;;;;;;5022868;28;20444;-54
2023/11/08 08:20:04;;;;;;;2.07;1.27;;;14.20;54.40;;;;;;5024592;28;20546;-53
2023/11/08 08:22:30;;;;;;;3.33;1.40;;;14.20;54.30;;;;;;5034394;28;20319;-58
2023/11/08 08:24:56;;;;;;;4.47;1.50;;;14.20;54.10;;;;;;5038611;28;20531;-53
2023/11/08 08:27:21;;;;;;;2.70;1.40;;;14.10;54.50;;;;;;5026632;28;20874;-57
2023/11/08 08:29:47;;;;;;;3.77;1.20;;;14.10;54.50;;;;;;5027151;28;20208;-55
2023/11/08 08:32:12;;;;;;;2.50;1.30;;;14.20;54.20;;;;;;5029733;28;20227;-56
2023/11/08 08:34:38;;;;;;;2.30;1.17;;;14.30;53.90;;;;;;5033852;28;20211;-54
2023/11/08 08:37:05;;;;;;;1.07;0.93;;;14.30;53.70;;;;;;5030413;28;20273;-58
2023/11/08 08:39:30;;;;;;;1.50;1.03;;;14.10;53.20;;;;;;5030923;28;20748;-57
2023/11/08 08:41:56;;;;;;;5.33;1.33;;;14.20;53.60;;;;;;5028055;28;20475;-56
2023/11/08 08:44:23;;;;;;;1.33;1.07;;;14.10;53.30;;;;;;5026424;28;20224;-57
2023/11/08 08:46:49;;;;;;;2.30;1.27;;;14.10;53.30;;;;;;5026035;28;20441;-58
2023/11/08 08:49:14;;;;;;;1.40;1.10;;;14.30;53.30;;;;;;5022493;28;20804;-55
2023/11/08 08:51:40;;;;;;;1.73;1.20;;;14.20;53.00;;;;;;5024355;28;20221;-57
2023/11/08 08:54:07;;;;;;;2.20;1.30;;;14.10;53.80;;;;;;5025854;28;20205;-57
2023/11/08 08:56:33;;;;;;;2.20;1.10;;;14.20;54.00;;;;;;5022922;28;20439;-56
2023/11/08 08:58:59;;;;;;;1.53;1.00;;;14.30;53.80;;;;;;5025702;28;20466;-57
2023/11/08 09:01:25;;;;;;;3.70;1.20;;;14.40;53.30;;;;;;5020616;28;20869;-56
2023/11/08 09:03:51;;;;;;;1.20;1.10;;;14.40;53.50;;;;;;5023710;28;20272;-56
2023/11/08 09:06:19;;;;;;;1.30;1.03;;;14.40;53.60;;;;;;5015970;28;20448;-57
2023/11/08 09:08:45;;;;;;;1.80;1.13;;;14.60;53.50;;;;;;5025431;28;20552;-56
2023/11/08 09:11:10;;;;;;;2.30;1.40;;;14.60;52.90;;;;;;5033217;28;21068;-57
2023/11/08 09:13:36;;;;;;;4.73;1.10;;;14.60;52.90;;;;;;5022157;28;20530;-56
2023/11/08 09:16:07;;;;;;;1.30;1.00;;;14.80;52.80;;;;;;5023053;28;20276;-57
2023/11/08 09:18:32;;;;;;;2.03;1.00;;;15.10;52.40;;;;;;5024317;28;20596;-56
2023/11/08 09:20:58;;;;;;;2.70;1.20;;;15.30;52.30;;;;;;5032373;28;20443;-55
2023/11/08 09:23:24;;;;;;;3.50;1.20;;;15.50;51.90;;;;;;5027384;28;20211;-56
2023/11/08 09:25:49;;;;;;;4.10;1.40;;;15.80;51.80;;;;;;5019579;28;20190;-56
2023/11/08 09:28:15;;;;;;;2.10;0.97;;;16.00;50.60;;;;;;5030676;28;20740;-53
2023/11/08 09:30:41;;;;;;;5.03;1.40;;;15.90;50.20;;;;;;5029793;28;20221;-57
2023/11/08 09:33:06;;;;;;;1.00;0.90;;;15.60;50.50;;;;;;5026896;28;20177;-59
2023/11/08 09:35:32;;;;;;;1.23;1.07;;;15.30;51.00;;;;;;5026690;28;21038;-55
2023/11/08 09:37:58;;;;;;;1.93;1.20;;;15.30;52.00;;;;;;5041197;22;20181;-53
2023/11/08 09:40:24;;;;;;;2.10;1.10;;;15.50;51.30;;;;;;5023205;28;20188;-54
2023/11/08 09:42:50;;;;;;;2.00;0.80;;;15.50;51.50;;;;;;5034401;28;20829;-53
2023/11/08 09:45:17;;;;;;;1.73;1.00;;;15.60;51.20;;;;;;5030843;28;20573;-53
2023/11/08 09:47:45;;;;;;;2.63;1.20;;;15.80;51.20;;;;;;5036442;28;20467;-52
2023/11/08 09:50:12;;;;;;;3.03;1.20;;;15.70;50.50;;;;;;5025483;28;20479;-51
2023/11/08 09:52:38;;;;;;;2.80;1.00;;;15.90;51.00;;;;;;5022572;28;20478;-50
2023/11/08 09:55:10;;;;;;;1.90;0.90;;;15.80;50.50;;;;;;5021678;28;20458;-54
2023/11/08 09:57:36;;;;;;;1.53;0.87;;;15.90;51.00;;;;;;5023683;28;20455;-51
2023/11/08 10:00:03;;;;;;;2.03;1.10;;;16.30;50.40;;;;;;5032146;28;20591;-50
2023/11/08 10:02:29;;;;;;;0.90;0.83;;;16.40;50.00;;;;;;5026486;28;20440;-52
2023/11/08 10:04:58;;;;;;;2.83;1.00;;;16.60;49.80;;;;;;5024462;28;20835;-54
2023/11/08 10:07:23;;;;;;;1.10;1.00;;;16.70;48.90;;;;;;5032259;28;20490;-51
2023/11/08 10:09:49;;;;;;;2.60;1.23;;;16.60;47.90;;;;;;5030933;28;20460;-52
2023/11/08 10:12:21;;;;;;;1.13;0.97;;;16.00;48.70;;;;;;5025354;28;20279;-50
2023/11/08 10:14:58;;;;;;;6.33;1.07;;;16.00;49.00;;;;;;5024178;28;20186;-53
2023/11/08 10:17:37;;;;;;;1.53;1.17;;;16.20;49.40;;;;;;5020486;28;20475;-54
2023/11/08 10:20:06;;;;;;;1.60;1.00;;;16.40;49.40;;;;;;5031873;28;20480;-50
2023/11/08 10:22:32;;;;;;;2.10;0.90;;;16.50;48.00;;;;;;5031367;28;20444;-52
2023/11/08 10:25:00;;;;;;;2.03;0.90;;;16.50;47.80;;;;;;5036621;28;21041;-54
2023/11/08 10:27:28;;;;;;;1.10;0.90;;;16.70;48.00;;;;;;5026633;28;20189;-55
2023/11/08 10:30:12;;;;;;;1.43;1.10;;;17.00;47.80;;;;;;5032322;28;20468;-52
2023/11/08 10:32:38;;;;;;;3.90;1.27;;;17.00;47.20;;;;;;5030637;28;20475;-53
2023/11/08 10:35:19;;;;;;;2.30;0.90;;;16.80;47.10;;;;;;5037311;28;20485;-52
2023/11/08 10:37:46;;;;;;;1.83;1.10;;;16.40;47.50;;;;;;5028647;28;20778;-56
2023/11/08 10:40:12;;;;;;;1.37;0.97;;;16.50;48.30;;;;;;5033332;28;20505;-53
2023/11/08 10:42:39;;;;;;;1.00;0.90;;;16.50;48.30;;;;;;5035894;28;21257;-53
2023/11/08 10:45:08;;;;;;;0.70;0.70;;;16.50;47.60;;;;;;5039498;28;20466;-50
2023/11/08 10:47:39;;;;;;;1.27;0.80;;;16.40;47.50;;;;;;5033313;28;20482;-51
2023/11/08 10:50:38;;;;;;;2.30;0.93;;;16.50;47.90;;;;;;5040176;28;20454;-50
2023/11/08 10:52:57;;;;;;;0.70;0.70;;;16.70;47.70;;;;;;5040011;28;20448;-51
2023/11/08 10:55:25;;;;;;;1.03;0.87;;;16.60;47.00;;;;;;5035563;28;20821;-52
2023/11/08 10:58:02;;;;;;;1.70;0.83;;;16.30;47.50;;;;;;5037341;28;20202;-55
2023/11/08 11:00:28;;;;;;;1.87;1.10;;;16.40;47.90;;;;;;5032637;28;20471;-50
2023/11/08 11:03:02;;;;;;;2.80;0.90;;;16.20;47.80;;;;;;5032798;28;20967;-54
2023/11/08 11:05:30;;;;;;;1.70;0.80;;;16.30;47.80;;;;;;5039216;28;20447;-52
2023/11/08 11:07:58;;;;;;;4.00;1.23;;;16.50;47.90;;;;;;5036362;28;20467;-51
2023/11/08 11:10:24;;;;;;;1.40;1.20;;;16.70;47.80;;;;;;5037129;28;20448;-52
2023/11/08 11:13:04;;;;;;;1.23;1.00;;;16.90;47.70;;;;;;5029588;28;20451;-55
2023/11/08 11:15:52;;;;;;;1.00;1.00;;;16.90;47.50;;;;;;5032772;28;20706;-55
2023/11/08 11:18:21;;;;;;;1.10;0.70;;;16.60;48.00;;;;;;5027032;28;20467;-52
2023/11/08 11:20:55;;;;;;;0.93;0.83;;;16.50;48.30;;;;;;5024860;28;20502;-52
2023/11/08 11:23:33;;;;;;;1.10;1.00;;;16.40;48.30;;;;;;5030486;28;20878;-56
2023/11/08 11:26:00;;;;;;;2.80;0.90;;;16.60;48.90;;;;;;5035330;28;20493;-54
2023/11/08 11:28:54;;;;;;;1.07;0.70;;;16.70;48.70;;;;;;5027279;28;20472;-51
2023/11/08 11:31:34;;;;;;;1.13;0.90;;;16.80;47.60;;;;;;5023637;28;20478;-55
2023/11/08 11:34:29;;;;;;;1.30;0.87;;;16.90;47.40;;;;;;5030446;28;20439;-50
2023/11/08 11:37:05;;;;;;;0.80;0.80;;;17.00;47.20;;;;;;5042853;28;20535;-52
2023/11/08 11:39:32;;;;;;;0.90;0.90;;;17.10;47.30;;;;;;5030734;28;20970;-57
2023/11/08 11:42:13;;;;;;;1.70;0.90;;;17.10;47.40;;;;;;5034471;28;20943;-49
2023/11/08 11:44:45;;;;;;;0.90;0.90;;;17.00;47.20;;;;;;5039857;28;20443;-51
2023/11/08 11:47:14;;;;;;;0.93;0.80;;;17.00;47.60;;;;;;5036616;28;20490;-50
2023/11/08 11:49:51;;;;;;;1.23;0.90;;;17.00;47.50;;;;;;5036593;28;20493;-50
2023/11/08 11:52:19;;;;;;;1.33;0.70;;;17.00;47.30;;;;;;5034391;28;20474;-58
2023/11/08 11:54:50;;;;;;;0.97;0.97;;;17.10;47.30;;;;;;5024031;28;20474;-53
2023/11/08 11:57:20;;;;;;;1.17;1.07;;;17.00;47.00;;;;;;5028060;28;20439;-53
2023/11/08 12:00:05;;;;;;;2.40;0.97;;;16.90;47.10;;;;;;5043760;28;20439;-53
2023/11/08 12:02:31;;;;;;;1.70;0.90;;;16.90;47.50;;;;;;5030360;28;20479;-54
2023/11/08 12:04:57;;;;;;;1.10;1.00;;;16.70;48.00;;;;;;5042903;28;20463;-51
2023/11/08 12:07:23;;;;;;;0.90;0.90;;;16.60;48.00;;;;;;5036286;28;20695;-51
2023/11/08 12:09:49;;;;;;;0.87;0.83;;;16.70;48.30;;;;;;5025085;28;20555;-50
2023/11/08 12:12:27;;;;;;;0.80;0.80;;;16.60;47.90;;;;;;5021728;28;20216;-52
2023/11/08 12:14:52;;;;;;;1.40;1.10;;;16.60;48.20;;;;;;5037409;28;20487;-52
2023/11/08 12:17:18;;;;;;;1.43;0.87;;;16.40;48.10;;;;;;5026959;28;20537;-53
2023/11/08 12:19:44;;;;;;;1.37;1.00;;;16.30;48.30;;;;;;5036354;28;20719;-53
2023/11/08 12:22:10;;;;;;;0.90;0.80;;;16.20;48.90;;;;;;5041679;28;20201;-51
2023/11/08 12:24:37;;;;;;;0.80;0.77;;;16.20;48.90;;;;;;5034140;28;20558;-55
2023/11/08 12:27:04;;;;;;;0.80;0.80;;;16.40;48.60;;;;;;5022240;28;20238;-53
2023/11/08 12:29:30;;;;;;;1.10;0.93;;;16.50;48.60;;;;;;5029306;28;20541;-54
2023/11/08 12:31:56;;;;;;;1.00;0.80;;;16.50;48.70;;;;;;5034847;28;20468;-55
2023/11/08 12:34:22;;;;;;;0.90;0.90;;;16.40;48.60;;;;;;5042550;28;20617;-52
2023/11/08 12:36:48;;;;;;;0.80;0.80;;;16.70;48.60;;;;;;5031855;28;20526;-57
2023/11/08 12:39:18;;;;;;;0.83;0.83;;;16.60;47.80;;;;;;5035772;28;20490;-56
2023/11/08 12:41:45;;;;;;;2.23;1.00;;;16.40;48.10;;;;;;5038088;28;20538;-56
2023/11/08 12:44:15;;;;;;;1.23;1.13;;;16.50;48.60;;;;;;5024113;28;20529;-55
2023/11/08 12:46:59;;;;;;;1.20;0.80;;;16.70;48.20;;;;;;5020697;28;20451;-53